sensor_id;sensor_type;location;lat;lon;timestamp;P1;durP1;ratioP1;P2;durP2;ratioP2
50781;SDS011;36749;37.428;-121.972;2023-05-19T00:00:23;17.60;;;4.38;;
50781;SDS011;36749;37.428;-121.972;2023-05-19T00:02:49;14.50;;;3.83;;
50781;SDS011;36749;37.428;-121.972;2023-05-19T00:05:15;13.95;;;3.95;;
50781;SDS011;36749;37.428;-121.972;2023-05-19T00:07:42;16.42;;;4.28;;
50781;SDS011;36749;37.428;-121.972;2023-05-19T00:10:10;14.18;;;3.65;;
50781;SDS011;36749;37.428;-121.972;2023-05-19T00:12:37;15.23;;;3.75;;
50781;SDS011;36749;37.428;-121.972;2023-05-19T00:15:03;12.85;;;3.45;;
50781;SDS011;36749;37.428;-121.972;2023-05-19T00:17:30;14.75;;;4.03;;
50781;SDS011;36749;37.428;-121.972;2023-05-19T00:19:58;12.57;;;3.92;;
50781;SDS011;36749;37.428;-121.972;2023-05-19T00:22:25;14.00;;;3.40;;
50781;SDS011;36749;37.428;-121.972;2023-05-19T00:24:52;11.20;;;3.92;;
50781;SDS011;36749;37.428;-121.972;2023-05-19T00:27:18;16.23;;;4.38;;
50781;SDS011;36749;37.428;-121.972;2023-05-19T00:29:44;18.00;;;3.70;;
50781;SDS011;36749;37.428;-121.972;2023-05-19T00:32:10;15.13;;;4.22;;
50781;SDS011;36749;37.428;-121.972;2023-05-19T00:34:36;16.38;;;3.65;;
50781;SDS011;36749;37.428;-121.972;2023-05-19T00:37:03;14.20;;;3.92;;
50781;SDS011;36749;37.428;-121.972;2023-05-19T00:39:29;13.00;;;3.10;;
50781;SDS011;36749;37.428;-121.972;2023-05-19T00:41:55;13.48;;;3.90;;
50781;SDS011;36749;37.428;-121.972;2023-05-19T00:44:21;12.32;;;3.47;;
50781;SDS011;36749;37.428;-121.972;2023-05-19T00:46:47;13.20;;;3.70;;
50781;SDS011;36749;37.428;-121.972;2023-05-19T00:49:13;14.43;;;4.18;;
50781;SDS011;36749;37.428;-121.972;2023-05-19T00:51:40;18.65;;;4.47;;
50781;SDS011;36749;37.428;-121.972;2023-05-19T00:54:06;12.00;;;3.67;;
50781;SDS011;36749;37.428;-121.972;2023-05-19T00:56:32;11.55;;;3.90;;
50781;SDS011;36749;37.428;-121.972;2023-05-19T00:58:59;14.43;;;4.15;;
50781;SDS011;36749;37.428;-121.972;2023-05-19T01:01:25;12.65;;;3.40;;
50781;SDS011;36749;37.428;-121.972;2023-05-19T01:03:52;13.35;;;3.53;;
50781;SDS011;36749;37.428;-121.972;2023-05-19T01:06:20;13.02;;;4.35;;
50781;SDS011;36749;37.428;-121.972;2023-05-19T01:08:46;16.67;;;4.25;;
50781;SDS011;36749;37.428;-121.972;2023-05-19T01:11:13;15.52;;;4.47;;
50781;SDS011;36749;37.428;-121.972;2023-05-19T01:13:39;14.48;;;4.13;;
50781;SDS011;36749;37.428;-121.972;2023-05-19T01:19:03;12.05;;;4.00;;
50781;SDS011;36749;37.428;-121.972;2023-05-19T01:22:16;19.27;;;4.07;;
50781;SDS011;36749;37.428;-121.972;2023-05-19T01:27:29;11.38;;;4.07;;
50781;SDS011;36749;37.428;-121.972;2023-05-19T01:32:41;18.50;;;4.40;;
50781;SDS011;36749;37.428;-121.972;2023-05-19T01:35:08;15.93;;;4.63;;
50781;SDS011;36749;37.428;-121.972;2023-05-19T01:37:36;16.60;;;4.10;;
50781;SDS011;36749;37.428;-121.972;2023-05-19T01:40:02;13.50;;;4.20;;
50781;SDS011;36749;37.428;-121.972;2023-05-19T01:42:29;16.50;;;4.28;;
50781;SDS011;36749;37.428;-121.972;2023-05-19T01:45:04;17.85;;;4.13;;
50781;SDS011;36749;37.428;-121.972;2023-05-19T01:47:35;16.77;;;4.25;;
50781;SDS011;36749;37.428;-121.972;2023-05-19T01:52:35;21.25;;;4.65;;
50781;SDS011;36749;37.428;-121.972;2023-05-19T01:55:01;14.68;;;3.83;;
50781;SDS011;36749;37.428;-121.972;2023-05-19T02:00:35;12.82;;;3.88;;
50781;SDS011;36749;37.428;-121.972;2023-05-19T02:06:17;18.40;;;4.03;;
50781;SDS011;36749;37.428;-121.972;2023-05-19T02:09:17;20.27;;;5.20;;
50781;SDS011;36749;37.428;-121.972;2023-05-19T02:14:24;14.77;;;4.30;;
50781;SDS011;36749;37.428;-121.972;2023-05-19T02:17:11;14.38;;;4.32;;
50781;SDS011;36749;37.428;-121.972;2023-05-19T02:19:40;18.23;;;4.75;;
50781;SDS011;36749;37.428;-121.972;2023-05-19T02:22:07;16.67;;;4.18;;
50781;SDS011;36749;37.428;-121.972;2023-05-19T02:24:33;15.48;;;4.13;;
50781;SDS011;36749;37.428;-121.972;2023-05-19T02:27:01;15.00;;;4.32;;
50781;SDS011;36749;37.428;-121.972;2023-05-19T02:29:28;16.67;;;3.70;;
50781;SDS011;36749;37.428;-121.972;2023-05-19T02:31:54;11.80;;;3.53;;
50781;SDS011;36749;37.428;-121.972;2023-05-19T02:34:20;14.60;;;4.07;;
50781;SDS011;36749;37.428;-121.972;2023-05-19T02:36:47;12.75;;;4.13;;
50781;SDS011;36749;37.428;-121.972;2023-05-19T02:39:16;16.58;;;3.70;;
50781;SDS011;36749;37.428;-121.972;2023-05-19T02:41:42;17.63;;;4.43;;
50781;SDS011;36749;37.428;-121.972;2023-05-19T02:44:08;20.45;;;4.88;;
50781;SDS011;36749;37.428;-121.972;2023-05-19T02:46:34;18.73;;;4.88;;
50781;SDS011;36749;37.428;-121.972;2023-05-19T02:49:00;18.38;;;4.82;;
50781;SDS011;36749;37.428;-121.972;2023-05-19T02:51:27;15.10;;;4.57;;
50781;SDS011;36749;37.428;-121.972;2023-05-19T02:53:53;17.20;;;4.25;;
50781;SDS011;36749;37.428;-121.972;2023-05-19T02:56:19;14.80;;;4.18;;
50781;SDS011;36749;37.428;-121.972;2023-05-19T02:58:45;24.23;;;4.57;;
50781;SDS011;36749;37.428;-121.972;2023-05-19T03:01:12;16.02;;;4.78;;
50781;SDS011;36749;37.428;-121.972;2023-05-19T03:03:38;17.48;;;5.43;;
50781;SDS011;36749;37.428;-121.972;2023-05-19T03:06:24;12.40;;;4.43;;
50781;SDS011;36749;37.428;-121.972;2023-05-19T03:08:50;17.45;;;4.95;;
50781;SDS011;36749;37.428;-121.972;2023-05-19T03:11:16;19.65;;;4.82;;
50781;SDS011;36749;37.428;-121.972;2023-05-19T03:13:43;21.40;;;5.00;;
50781;SDS011;36749;37.428;-121.972;2023-05-19T03:16:09;15.82;;;4.32;;
50781;SDS011;36749;37.428;-121.972;2023-05-19T03:18:36;16.88;;;5.05;;
50781;SDS011;36749;37.428;-121.972;2023-05-19T03:21:02;14.43;;;3.70;;
50781;SDS011;36749;37.428;-121.972;2023-05-19T03:23:29;17.92;;;4.88;;
50781;SDS011;36749;37.428;-121.972;2023-05-19T03:25:55;13.55;;;4.60;;
50781;SDS011;36749;37.428;-121.972;2023-05-19T03:28:21;17.67;;;4.57;;
50781;SDS011;36749;37.428;-121.972;2023-05-19T03:30:47;14.77;;;4.22;;
50781;SDS011;36749;37.428;-121.972;2023-05-19T03:33:17;15.95;;;4.88;;
50781;SDS011;36749;37.428;-121.972;2023-05-19T03:35:43;13.95;;;4.82;;
50781;SDS011;36749;37.428;-121.972;2023-05-19T03:38:09;14.55;;;4.35;;
50781;SDS011;36749;37.428;-121.972;2023-05-19T03:40:35;20.33;;;6.78;;
50781;SDS011;36749;37.428;-121.972;2023-05-19T03:43:01;18.20;;;4.97;;
50781;SDS011;36749;37.428;-121.972;2023-05-19T03:45:27;17.75;;;5.88;;
50781;SDS011;36749;37.428;-121.972;2023-05-19T03:47:54;18.17;;;4.60;;
50781;SDS011;36749;37.428;-121.972;2023-05-19T03:50:20;16.70;;;4.82;;
50781;SDS011;36749;37.428;-121.972;2023-05-19T03:52:47;19.95;;;4.40;;
50781;SDS011;36749;37.428;-121.972;2023-05-19T03:55:13;14.68;;;4.32;;
50781;SDS011;36749;37.428;-121.972;2023-05-19T03:57:40;17.63;;;5.38;;
50781;SDS011;36749;37.428;-121.972;2023-05-19T04:00:09;16.05;;;4.75;;
50781;SDS011;36749;37.428;-121.972;2023-05-19T04:02:36;17.63;;;4.53;;
50781;SDS011;36749;37.428;-121.972;2023-05-19T04:05:02;20.60;;;5.55;;
50781;SDS011;36749;37.428;-121.972;2023-05-19T04:07:29;18.35;;;5.53;;
50781;SDS011;36749;37.428;-121.972;2023-05-19T04:09:56;13.70;;;4.68;;
50781;SDS011;36749;37.428;-121.972;2023-05-19T04:12:22;17.40;;;4.10;;
50781;SDS011;36749;37.428;-121.972;2023-05-19T04:14:48;17.52;;;4.45;;
50781;SDS011;36749;37.428;-121.972;2023-05-19T04:17:14;15.00;;;5.10;;
50781;SDS011;36749;37.428;-121.972;2023-05-19T04:19:40;15.73;;;4.45;;
50781;SDS011;36749;37.428;-121.972;2023-05-19T04:22:07;14.68;;;4.97;;
50781;SDS011;36749;37.428;-121.972;2023-05-19T04:24:33;15.88;;;4.25;;
50781;SDS011;36749;37.428;-121.972;2023-05-19T04:26:59;18.88;;;5.13;;
50781;SDS011;36749;37.428;-121.972;2023-05-19T04:29:27;16.30;;;4.55;;
50781;SDS011;36749;37.428;-121.972;2023-05-19T04:31:53;16.50;;;4.30;;
50781;SDS011;36749;37.428;-121.972;2023-05-19T04:34:21;15.88;;;4.28;;
50781;SDS011;36749;37.428;-121.972;2023-05-19T04:36:47;17.13;;;4.57;;
50781;SDS011;36749;37.428;-121.972;2023-05-19T04:39:14;15.43;;;4.65;;
50781;SDS011;36749;37.428;-121.972;2023-05-19T04:41:40;8.55;;;4.10;;
50781;SDS011;36749;37.428;-121.972;2023-05-19T04:44:08;35.88;;;6.25;;
50781;SDS011;36749;37.428;-121.972;2023-05-19T04:46:35;28.38;;;5.30;;
50781;SDS011;36749;37.428;-121.972;2023-05-19T04:49:01;20.90;;;4.65;;
50781;SDS011;36749;37.428;-121.972;2023-05-19T04:51:27;16.13;;;3.83;;
50781;SDS011;36749;37.428;-121.972;2023-05-19T04:53:58;17.23;;;4.38;;
50781;SDS011;36749;37.428;-121.972;2023-05-19T04:56:24;15.18;;;4.32;;
50781;SDS011;36749;37.428;-121.972;2023-05-19T04:58:51;15.15;;;4.72;;
50781;SDS011;36749;37.428;-121.972;2023-05-19T05:01:18;16.23;;;5.60;;
50781;SDS011;36749;37.428;-121.972;2023-05-19T05:03:46;19.15;;;5.70;;
50781;SDS011;36749;37.428;-121.972;2023-05-19T05:06:12;16.67;;;5.65;;
50781;SDS011;36749;37.428;-121.972;2023-05-19T05:08:38;19.73;;;4.68;;
50781;SDS011;36749;37.428;-121.972;2023-05-19T05:11:05;16.20;;;5.18;;
50781;SDS011;36749;37.428;-121.972;2023-05-19T05:13:32;46.78;;;7.75;;
50781;SDS011;36749;37.428;-121.972;2023-05-19T05:15:58;21.45;;;6.93;;
50781;SDS011;36749;37.428;-121.972;2023-05-19T05:18:25;25.85;;;5.40;;
50781;SDS011;36749;37.428;-121.972;2023-05-19T05:20:51;16.17;;;4.88;;
50781;SDS011;36749;37.428;-121.972;2023-05-19T05:23:17;29.67;;;9.98;;
50781;SDS011;36749;37.428;-121.972;2023-05-19T05:25:45;27.77;;;12.35;;
50781;SDS011;36749;37.428;-121.972;2023-05-19T05:28:11;32.80;;;11.98;;
50781;SDS011;36749;37.428;-121.972;2023-05-19T05:30:38;29.70;;;10.50;;
50781;SDS011;36749;37.428;-121.972;2023-05-19T05:33:05;23.13;;;8.25;;
50781;SDS011;36749;37.428;-121.972;2023-05-19T05:35:31;14.63;;;5.35;;
50781;SDS011;36749;37.428;-121.972;2023-05-19T05:37:57;14.90;;;4.43;;
50781;SDS011;36749;37.428;-121.972;2023-05-19T05:40:26;18.52;;;5.07;;
50781;SDS011;36749;37.428;-121.972;2023-05-19T05:42:52;17.88;;;4.78;;
50781;SDS011;36749;37.428;-121.972;2023-05-19T05:45:23;17.40;;;4.80;;
50781;SDS011;36749;37.428;-121.972;2023-05-19T05:47:50;13.43;;;4.97;;
50781;SDS011;36749;37.428;-121.972;2023-05-19T05:50:16;19.08;;;4.90;;
50781;SDS011;36749;37.428;-121.972;2023-05-19T05:52:46;19.15;;;5.60;;
50781;SDS011;36749;37.428;-121.972;2023-05-19T05:55:13;12.80;;;4.18;;
50781;SDS011;36749;37.428;-121.972;2023-05-19T05:57:41;21.85;;;5.40;;
50781;SDS011;36749;37.428;-121.972;2023-05-19T06:00:08;18.83;;;4.78;;
50781;SDS011;36749;37.428;-121.972;2023-05-19T06:02:43;13.68;;;4.18;;
50781;SDS011;36749;37.428;-121.972;2023-05-19T06:05:12;21.75;;;5.07;;
50781;SDS011;36749;37.428;-121.972;2023-05-19T06:07:39;17.75;;;4.88;;
50781;SDS011;36749;37.428;-121.972;2023-05-19T06:10:06;15.43;;;4.35;;
50781;SDS011;36749;37.428;-121.972;2023-05-19T06:12:33;18.98;;;4.50;;
50781;SDS011;36749;37.428;-121.972;2023-05-19T06:15:00;15.18;;;4.78;;
50781;SDS011;36749;37.428;-121.972;2023-05-19T06:17:27;17.23;;;4.40;;
50781;SDS011;36749;37.428;-121.972;2023-05-19T06:19:53;23.05;;;5.40;;
50781;SDS011;36749;37.428;-121.972;2023-05-19T06:22:20;19.52;;;5.03;;
50781;SDS011;36749;37.428;-121.972;2023-05-19T06:24:46;14.98;;;4.57;;
50781;SDS011;36749;37.428;-121.972;2023-05-19T06:27:12;17.90;;;5.20;;
50781;SDS011;36749;37.428;-121.972;2023-05-19T06:29:38;23.20;;;4.80;;
50781;SDS011;36749;37.428;-121.972;2023-05-19T06:32:05;18.17;;;5.05;;
50781;SDS011;36749;37.428;-121.972;2023-05-19T06:34:31;21.80;;;4.97;;
50781;SDS011;36749;37.428;-121.972;2023-05-19T06:36:57;16.58;;;4.57;;
50781;SDS011;36749;37.428;-121.972;2023-05-19T06:39:23;14.95;;;4.88;;
50781;SDS011;36749;37.428;-121.972;2023-05-19T06:41:50;19.45;;;4.70;;
50781;SDS011;36749;37.428;-121.972;2023-05-19T06:44:16;23.40;;;5.50;;
50781;SDS011;36749;37.428;-121.972;2023-05-19T06:46:42;15.57;;;4.68;;
50781;SDS011;36749;37.428;-121.972;2023-05-19T06:49:09;12.65;;;4.32;;
50781;SDS011;36749;37.428;-121.972;2023-05-19T06:51:35;20.80;;;5.05;;
50781;SDS011;36749;37.428;-121.972;2023-05-19T06:54:01;18.48;;;5.68;;
50781;SDS011;36749;37.428;-121.972;2023-05-19T06:56:28;18.08;;;5.85;;
50781;SDS011;36749;37.428;-121.972;2023-05-19T06:58:54;16.60;;;5.20;;
50781;SDS011;36749;37.428;-121.972;2023-05-19T07:01:20;18.05;;;5.35;;
50781;SDS011;36749;37.428;-121.972;2023-05-19T07:03:46;16.70;;;5.40;;
50781;SDS011;36749;37.428;-121.972;2023-05-19T07:06:12;17.65;;;5.45;;
50781;SDS011;36749;37.428;-121.972;2023-05-19T07:08:38;17.33;;;4.72;;
50781;SDS011;36749;37.428;-121.972;2023-05-19T07:11:05;15.32;;;4.13;;
50781;SDS011;36749;37.428;-121.972;2023-05-19T07:13:31;16.65;;;5.18;;
50781;SDS011;36749;37.428;-121.972;2023-05-19T07:15:57;16.02;;;4.15;;
50781;SDS011;36749;37.428;-121.972;2023-05-19T07:18:23;13.98;;;4.55;;
50781;SDS011;36749;37.428;-121.972;2023-05-19T07:20:52;18.17;;;5.10;;
50781;SDS011;36749;37.428;-121.972;2023-05-19T07:23:18;19.35;;;5.00;;
50781;SDS011;36749;37.428;-121.972;2023-05-19T07:25:45;16.23;;;4.78;;
50781;SDS011;36749;37.428;-121.972;2023-05-19T07:28:11;13.30;;;4.43;;
50781;SDS011;36749;37.428;-121.972;2023-05-19T07:30:37;16.55;;;4.45;;
50781;SDS011;36749;37.428;-121.972;2023-05-19T07:33:03;20.30;;;5.28;;
50781;SDS011;36749;37.428;-121.972;2023-05-19T07:35:31;17.27;;;5.45;;
50781;SDS011;36749;37.428;-121.972;2023-05-19T07:37:57;9.98;;;4.57;;
50781;SDS011;36749;37.428;-121.972;2023-05-19T07:40:23;17.98;;;4.72;;
50781;SDS011;36749;37.428;-121.972;2023-05-19T07:42:49;16.00;;;5.53;;
50781;SDS011;36749;37.428;-121.972;2023-05-19T07:45:16;16.00;;;4.72;;
50781;SDS011;36749;37.428;-121.972;2023-05-19T07:47:42;19.08;;;5.78;;
50781;SDS011;36749;37.428;-121.972;2023-05-19T07:50:08;21.92;;;6.15;;
50781;SDS011;36749;37.428;-121.972;2023-05-19T07:52:34;20.38;;;5.43;;
50781;SDS011;36749;37.428;-121.972;2023-05-19T07:55:00;21.35;;;5.85;;
50781;SDS011;36749;37.428;-121.972;2023-05-19T07:57:26;21.25;;;6.55;;
50781;SDS011;36749;37.428;-121.972;2023-05-19T07:59:53;20.10;;;6.47;;
50781;SDS011;36749;37.428;-121.972;2023-05-19T08:02:19;20.45;;;5.90;;
50781;SDS011;36749;37.428;-121.972;2023-05-19T08:04:45;15.93;;;5.07;;
50781;SDS011;36749;37.428;-121.972;2023-05-19T08:07:12;22.63;;;6.18;;
50781;SDS011;36749;37.428;-121.972;2023-05-19T08:09:39;24.35;;;6.05;;
50781;SDS011;36749;37.428;-121.972;2023-05-19T08:12:05;20.95;;;5.55;;
50781;SDS011;36749;37.428;-121.972;2023-05-19T08:14:31;19.23;;;6.28;;
50781;SDS011;36749;37.428;-121.972;2023-05-19T08:16:59;24.27;;;5.90;;
50781;SDS011;36749;37.428;-121.972;2023-05-19T08:19:25;20.45;;;5.70;;
50781;SDS011;36749;37.428;-121.972;2023-05-19T08:21:51;18.83;;;5.72;;
50781;SDS011;36749;37.428;-121.972;2023-05-19T08:24:17;14.73;;;5.45;;
50781;SDS011;36749;37.428;-121.972;2023-05-19T08:26:43;24.80;;;6.70;;
50781;SDS011;36749;37.428;-121.972;2023-05-19T08:29:10;18.35;;;5.90;;
50781;SDS011;36749;37.428;-121.972;2023-05-19T08:31:36;21.92;;;5.00;;
50781;SDS011;36749;37.428;-121.972;2023-05-19T08:34:02;22.15;;;5.32;;
50781;SDS011;36749;37.428;-121.972;2023-05-19T08:36:28;19.00;;;5.88;;
50781;SDS011;36749;37.428;-121.972;2023-05-19T08:38:54;17.20;;;6.03;;
50781;SDS011;36749;37.428;-121.972;2023-05-19T08:41:21;19.80;;;6.07;;
50781;SDS011;36749;37.428;-121.972;2023-05-19T08:43:47;16.98;;;5.53;;
50781;SDS011;36749;37.428;-121.972;2023-05-19T08:46:14;24.20;;;7.10;;
50781;SDS011;36749;37.428;-121.972;2023-05-19T08:48:41;20.52;;;6.10;;
50781;SDS011;36749;37.428;-121.972;2023-05-19T08:51:30;23.40;;;6.05;;
50781;SDS011;36749;37.428;-121.972;2023-05-19T08:54:19;23.20;;;7.07;;
50781;SDS011;36749;37.428;-121.972;2023-05-19T08:56:49;20.42;;;5.45;;
50781;SDS011;36749;37.428;-121.972;2023-05-19T08:59:16;21.58;;;6.78;;
50781;SDS011;36749;37.428;-121.972;2023-05-19T09:01:43;18.30;;;6.10;;
50781;SDS011;36749;37.428;-121.972;2023-05-19T09:04:12;17.20;;;5.20;;
50781;SDS011;36749;37.428;-121.972;2023-05-19T09:06:38;20.75;;;5.65;;
50781;SDS011;36749;37.428;-121.972;2023-05-19T09:09:08;16.90;;;5.65;;
50781;SDS011;36749;37.428;-121.972;2023-05-19T09:11:35;27.58;;;7.63;;
50781;SDS011;36749;37.428;-121.972;2023-05-19T09:14:04;22.67;;;6.78;;
50781;SDS011;36749;37.428;-121.972;2023-05-19T09:16:31;19.70;;;6.10;;
50781;SDS011;36749;37.428;-121.972;2023-05-19T09:18:58;20.67;;;6.25;;
50781;SDS011;36749;37.428;-121.972;2023-05-19T09:21:28;18.15;;;5.78;;
50781;SDS011;36749;37.428;-121.972;2023-05-19T09:24:07;20.15;;;5.93;;
50781;SDS011;36749;37.428;-121.972;2023-05-19T09:26:37;19.02;;;6.18;;
50781;SDS011;36749;37.428;-121.972;2023-05-19T09:29:11;18.92;;;5.40;;
50781;SDS011;36749;37.428;-121.972;2023-05-19T09:31:38;19.23;;;5.47;;
50781;SDS011;36749;37.428;-121.972;2023-05-19T09:34:10;23.95;;;5.88;;
50781;SDS011;36749;37.428;-121.972;2023-05-19T09:36:38;31.83;;;6.30;;
50781;SDS011;36749;37.428;-121.972;2023-05-19T09:39:15;25.17;;;6.60;;
50781;SDS011;36749;37.428;-121.972;2023-05-19T09:41:42;25.05;;;6.40;;
50781;SDS011;36749;37.428;-121.972;2023-05-19T09:44:26;19.92;;;5.78;;
50781;SDS011;36749;37.428;-121.972;2023-05-19T09:46:56;24.13;;;6.10;;
50781;SDS011;36749;37.428;-121.972;2023-05-19T09:49:26;17.73;;;5.47;;
50781;SDS011;36749;37.428;-121.972;2023-05-19T09:54:23;15.90;;;5.88;;
50781;SDS011;36749;37.428;-121.972;2023-05-19T09:59:31;17.20;;;5.57;;
50781;SDS011;36749;37.428;-121.972;2023-05-19T10:01:59;15.18;;;5.72;;
50781;SDS011;36749;37.428;-121.972;2023-05-19T10:04:26;26.42;;;6.28;;
50781;SDS011;36749;37.428;-121.972;2023-05-19T10:06:54;15.95;;;5.38;;
50781;SDS011;36749;37.428;-121.972;2023-05-19T10:09:24;17.80;;;6.35;;
50781;SDS011;36749;37.428;-121.972;2023-05-19T10:11:51;30.25;;;7.47;;
50781;SDS011;36749;37.428;-121.972;2023-05-19T10:14:21;17.90;;;5.25;;
50781;SDS011;36749;37.428;-121.972;2023-05-19T10:16:51;16.45;;;5.65;;
50781;SDS011;36749;37.428;-121.972;2023-05-19T10:19:19;18.33;;;5.85;;
50781;SDS011;36749;37.428;-121.972;2023-05-19T10:21:47;21.20;;;6.15;;
50781;SDS011;36749;37.428;-121.972;2023-05-19T10:24:14;19.95;;;6.45;;
50781;SDS011;36749;37.428;-121.972;2023-05-19T10:26:42;17.35;;;5.78;;
50781;SDS011;36749;37.428;-121.972;2023-05-19T10:29:10;19.55;;;5.78;;
50781;SDS011;36749;37.428;-121.972;2023-05-19T10:31:37;18.00;;;5.63;;
50781;SDS011;36749;37.428;-121.972;2023-05-19T10:36:49;19.85;;;6.20;;
50781;SDS011;36749;37.428;-121.972;2023-05-19T10:39:33;21.30;;;7.03;;
50781;SDS011;36749;37.428;-121.972;2023-05-19T10:42:08;19.23;;;5.68;;
50781;SDS011;36749;37.428;-121.972;2023-05-19T10:47:23;24.23;;;5.32;;
50781;SDS011;36749;37.428;-121.972;2023-05-19T10:49:52;20.95;;;5.80;;
50781;SDS011;36749;37.428;-121.972;2023-05-19T10:52:22;22.92;;;5.53;;
50781;SDS011;36749;37.428;-121.972;2023-05-19T10:54:54;17.58;;;5.80;;
50781;SDS011;36749;37.428;-121.972;2023-05-19T10:57:26;23.45;;;6.75;;
50781;SDS011;36749;37.428;-121.972;2023-05-19T10:59:56;21.60;;;7.30;;
50781;SDS011;36749;37.428;-121.972;2023-05-19T11:02:39;23.00;;;6.63;;
50781;SDS011;36749;37.428;-121.972;2023-05-19T11:05:09;23.27;;;6.38;;
50781;SDS011;36749;37.428;-121.972;2023-05-19T11:07:41;19.15;;;6.03;;
50781;SDS011;36749;37.428;-121.972;2023-05-19T11:10:08;19.17;;;6.03;;
50781;SDS011;36749;37.428;-121.972;2023-05-19T11:12:39;19.60;;;5.28;;
50781;SDS011;36749;37.428;-121.972;2023-05-19T11:15:11;21.77;;;6.13;;
50781;SDS011;36749;37.428;-121.972;2023-05-19T11:17:41;26.00;;;7.10;;
50781;SDS011;36749;37.428;-121.972;2023-05-19T11:20:22;17.38;;;5.43;;
50781;SDS011;36749;37.428;-121.972;2023-05-19T11:23:05;23.30;;;6.45;;
50781;SDS011;36749;37.428;-121.972;2023-05-19T11:28:09;20.25;;;5.97;;
50781;SDS011;36749;37.428;-121.972;2023-05-19T11:30:43;23.60;;;7.03;;
50781;SDS011;36749;37.428;-121.972;2023-05-19T11:33:10;21.10;;;6.40;;
50781;SDS011;36749;37.428;-121.972;2023-05-19T11:35:37;19.45;;;6.43;;
50781;SDS011;36749;37.428;-121.972;2023-05-19T11:38:05;24.20;;;6.28;;
50781;SDS011;36749;37.428;-121.972;2023-05-19T11:40:31;24.08;;;7.00;;
50781;SDS011;36749;37.428;-121.972;2023-05-19T11:42:58;21.63;;;6.93;;
50781;SDS011;36749;37.428;-121.972;2023-05-19T11:45:26;22.75;;;6.85;;
50781;SDS011;36749;37.428;-121.972;2023-05-19T11:47:53;19.67;;;6.07;;
50781;SDS011;36749;37.428;-121.972;2023-05-19T11:50:23;26.67;;;7.05;;
50781;SDS011;36749;37.428;-121.972;2023-05-19T11:53:13;21.42;;;7.05;;
50781;SDS011;36749;37.428;-121.972;2023-05-19T11:55:46;18.58;;;5.85;;
50781;SDS011;36749;37.428;-121.972;2023-05-19T11:58:13;18.15;;;6.38;;
50781;SDS011;36749;37.428;-121.972;2023-05-19T12:00:41;18.45;;;6.25;;
50781;SDS011;36749;37.428;-121.972;2023-05-19T12:03:11;19.73;;;6.07;;
50781;SDS011;36749;37.428;-121.972;2023-05-19T12:05:39;18.75;;;6.90;;
50781;SDS011;36749;37.428;-121.972;2023-05-19T12:08:10;24.33;;;6.53;;
50781;SDS011;36749;37.428;-121.972;2023-05-19T12:10:37;22.95;;;7.85;;
50781;SDS011;36749;37.428;-121.972;2023-05-19T12:13:04;21.35;;;6.82;;
50781;SDS011;36749;37.428;-121.972;2023-05-19T12:15:33;25.30;;;6.50;;
50781;SDS011;36749;37.428;-121.972;2023-05-19T12:18:00;24.75;;;6.88;;
50781;SDS011;36749;37.428;-121.972;2023-05-19T12:20:27;28.73;;;6.72;;
50781;SDS011;36749;37.428;-121.972;2023-05-19T12:22:57;25.05;;;7.35;;
50781;SDS011;36749;37.428;-121.972;2023-05-19T12:25:23;18.80;;;6.38;;
50781;SDS011;36749;37.428;-121.972;2023-05-19T12:27:50;23.20;;;7.00;;
50781;SDS011;36749;37.428;-121.972;2023-05-19T12:30:23;23.77;;;7.90;;
50781;SDS011;36749;37.428;-121.972;2023-05-19T12:32:52;24.40;;;6.90;;
50781;SDS011;36749;37.428;-121.972;2023-05-19T12:35:19;17.17;;;6.57;;
50781;SDS011;36749;37.428;-121.972;2023-05-19T12:37:47;21.52;;;6.55;;
50781;SDS011;36749;37.428;-121.972;2023-05-19T12:40:15;24.65;;;7.18;;
50781;SDS011;36749;37.428;-121.972;2023-05-19T12:42:44;24.63;;;6.82;;
50781;SDS011;36749;37.428;-121.972;2023-05-19T12:45:10;25.75;;;7.15;;
50781;SDS011;36749;37.428;-121.972;2023-05-19T12:47:37;20.40;;;7.20;;
50781;SDS011;36749;37.428;-121.972;2023-05-19T12:50:04;22.67;;;6.90;;
50781;SDS011;36749;37.428;-121.972;2023-05-19T12:52:43;21.65;;;6.70;;
50781;SDS011;36749;37.428;-121.972;2023-05-19T12:55:13;23.77;;;7.47;;
50781;SDS011;36749;37.428;-121.972;2023-05-19T12:57:42;16.55;;;6.72;;
50781;SDS011;36749;37.428;-121.972;2023-05-19T13:00:19;24.70;;;7.15;;
50781;SDS011;36749;37.428;-121.972;2023-05-19T13:03:02;23.15;;;7.28;;
50781;SDS011;36749;37.428;-121.972;2023-05-19T13:05:31;18.70;;;7.50;;
50781;SDS011;36749;37.428;-121.972;2023-05-19T13:08:07;19.80;;;7.20;;
50781;SDS011;36749;37.428;-121.972;2023-05-19T13:10:35;20.52;;;6.72;;
50781;SDS011;36749;37.428;-121.972;2023-05-19T13:13:02;16.70;;;6.35;;
50781;SDS011;36749;37.428;-121.972;2023-05-19T13:15:31;19.35;;;7.03;;
50781;SDS011;36749;37.428;-121.972;2023-05-19T13:17:59;28.45;;;8.13;;
50781;SDS011;36749;37.428;-121.972;2023-05-19T13:20:26;23.42;;;7.70;;
50781;SDS011;36749;37.428;-121.972;2023-05-19T13:22:52;22.00;;;7.28;;
50781;SDS011;36749;37.428;-121.972;2023-05-19T13:25:18;24.42;;;6.78;;
50781;SDS011;36749;37.428;-121.972;2023-05-19T13:27:46;17.70;;;6.22;;
50781;SDS011;36749;37.428;-121.972;2023-05-19T13:30:12;19.40;;;6.50;;
50781;SDS011;36749;37.428;-121.972;2023-05-19T13:32:40;22.35;;;7.50;;
50781;SDS011;36749;37.428;-121.972;2023-05-19T13:35:08;18.90;;;6.18;;
50781;SDS011;36749;37.428;-121.972;2023-05-19T13:37:35;16.38;;;6.47;;
50781;SDS011;36749;37.428;-121.972;2023-05-19T13:40:01;21.33;;;7.38;;
50781;SDS011;36749;37.428;-121.972;2023-05-19T13:42:27;19.48;;;7.93;;
50781;SDS011;36749;37.428;-121.972;2023-05-19T13:44:54;17.63;;;5.63;;
50781;SDS011;36749;37.428;-121.972;2023-05-19T13:47:21;15.70;;;6.05;;
50781;SDS011;36749;37.428;-121.972;2023-05-19T13:49:48;18.50;;;6.43;;
50781;SDS011;36749;37.428;-121.972;2023-05-19T13:52:14;19.65;;;5.85;;
50781;SDS011;36749;37.428;-121.972;2023-05-19T13:54:40;24.17;;;5.75;;
50781;SDS011;36749;37.428;-121.972;2023-05-19T13:57:07;17.55;;;5.88;;
50781;SDS011;36749;37.428;-121.972;2023-05-19T13:59:33;18.30;;;5.97;;
50781;SDS011;36749;37.428;-121.972;2023-05-19T14:01:59;16.08;;;5.57;;
50781;SDS011;36749;37.428;-121.972;2023-05-19T14:04:27;23.33;;;6.38;;
50781;SDS011;36749;37.428;-121.972;2023-05-19T14:06:53;18.77;;;5.70;;
50781;SDS011;36749;37.428;-121.972;2023-05-19T14:09:19;17.75;;;6.00;;
50781;SDS011;36749;37.428;-121.972;2023-05-19T14:11:46;17.17;;;6.32;;
50781;SDS011;36749;37.428;-121.972;2023-05-19T14:14:12;21.00;;;6.53;;
50781;SDS011;36749;37.428;-121.972;2023-05-19T14:16:41;16.98;;;5.80;;
50781;SDS011;36749;37.428;-121.972;2023-05-19T14:19:07;15.25;;;6.13;;
50781;SDS011;36749;37.428;-121.972;2023-05-19T14:21:56;18.70;;;5.82;;
50781;SDS011;36749;37.428;-121.972;2023-05-19T14:24:23;23.20;;;6.43;;
50781;SDS011;36749;37.428;-121.972;2023-05-19T14:26:49;15.32;;;5.57;;
50781;SDS011;36749;37.428;-121.972;2023-05-19T14:29:16;16.65;;;5.82;;
50781;SDS011;36749;37.428;-121.972;2023-05-19T14:31:42;20.30;;;6.93;;
50781;SDS011;36749;37.428;-121.972;2023-05-19T14:34:09;17.63;;;6.35;;